sensor_id;sensor_type;location;lat;lon;timestamp;P1;durP1;ratioP1;P2;durP2;ratioP2
15104;SDS011;7653;48.994;9.212;2023-05-02T00:00:14;7.70;;;6.30;;
15104;SDS011;7653;48.994;9.212;2023-05-02T00:02:40;7.23;;;6.53;;
15104;SDS011;7653;48.994;9.212;2023-05-02T00:05:05;8.53;;;7.40;;
15104;SDS011;7653;48.994;9.212;2023-05-02T00:07:32;8.10;;;7.30;;
15104;SDS011;7653;48.994;9.212;2023-05-02T00:09:58;8.63;;;7.57;;
15104;SDS011;7653;48.994;9.212;2023-05-02T00:12:26;10.00;;;8.00;;
15104;SDS011;7653;48.994;9.212;2023-05-02T00:14:51;8.50;;;7.27;;
15104;SDS011;7653;48.994;9.212;2023-05-02T00:17:18;10.17;;;7.70;;
15104;SDS011;7653;48.994;9.212;2023-05-02T00:19:44;10.23;;;7.63;;
15104;SDS011;7653;48.994;9.212;2023-05-02T00:22:10;11.53;;;9.13;;
15104;SDS011;7653;48.994;9.212;2023-05-02T00:24:36;12.03;;;8.27;;
15104;SDS011;7653;48.994;9.212;2023-05-02T00:27:02;9.07;;;7.50;;
15104;SDS011;7653;48.994;9.212;2023-05-02T00:29:29;11.03;;;7.60;;
15104;SDS011;7653;48.994;9.212;2023-05-02T00:31:54;9.83;;;7.63;;
15104;SDS011;7653;48.994;9.212;2023-05-02T00:34:21;9.53;;;7.93;;
15104;SDS011;7653;48.994;9.212;2023-05-02T00:36:47;9.97;;;7.40;;
15104;SDS011;7653;48.994;9.212;2023-05-02T00:39:12;8.10;;;6.83;;
15104;SDS011;7653;48.994;9.212;2023-05-02T00:41:38;8.80;;;6.80;;
15104;SDS011;7653;48.994;9.212;2023-05-02T00:44:03;9.63;;;7.43;;
15104;SDS011;7653;48.994;9.212;2023-05-02T00:46:29;9.40;;;8.40;;
15104;SDS011;7653;48.994;9.212;2023-05-02T00:48:55;9.33;;;8.20;;
15104;SDS011;7653;48.994;9.212;2023-05-02T00:51:21;9.57;;;7.97;;
15104;SDS011;7653;48.994;9.212;2023-05-02T00:53:47;10.47;;;7.97;;
15104;SDS011;7653;48.994;9.212;2023-05-02T00:56:13;9.13;;;7.73;;
15104;SDS011;7653;48.994;9.212;2023-05-02T00:58:39;8.70;;;7.80;;
15104;SDS011;7653;48.994;9.212;2023-05-02T01:11:47;10.47;;;8.47;;
15104;SDS011;7653;48.994;9.212;2023-05-02T01:14:13;11.00;;;8.43;;
15104;SDS011;7653;48.994;9.212;2023-05-02T01:16:40;11.43;;;8.30;;
15104;SDS011;7653;48.994;9.212;2023-05-02T01:19:12;9.80;;;8.50;;
15104;SDS011;7653;48.994;9.212;2023-05-02T01:22:05;10.57;;;8.53;;
15104;SDS011;7653;48.994;9.212;2023-05-02T01:24:41;10.03;;;8.50;;
15104;SDS011;7653;48.994;9.212;2023-05-02T01:27:27;12.40;;;9.77;;
15104;SDS011;7653;48.994;9.212;2023-05-02T01:30:00;10.27;;;9.00;;
15104;SDS011;7653;48.994;9.212;2023-05-02T01:32:28;12.70;;;9.27;;
15104;SDS011;7653;48.994;9.212;2023-05-02T01:34:57;11.37;;;9.47;;
15104;SDS011;7653;48.994;9.212;2023-05-02T01:37:25;11.77;;;9.30;;
15104;SDS011;7653;48.994;9.212;2023-05-02T01:39:53;10.30;;;8.27;;
15104;SDS011;7653;48.994;9.212;2023-05-02T01:42:20;9.93;;;8.17;;
15104;SDS011;7653;48.994;9.212;2023-05-02T01:44:47;10.20;;;9.20;;
15104;SDS011;7653;48.994;9.212;2023-05-02T01:47:15;9.43;;;8.43;;
15104;SDS011;7653;48.994;9.212;2023-05-02T01:49:43;11.23;;;9.90;;
15104;SDS011;7653;48.994;9.212;2023-05-02T01:52:10;12.07;;;10.07;;
15104;SDS011;7653;48.994;9.212;2023-05-02T01:54:38;11.17;;;9.83;;
15104;SDS011;7653;48.994;9.212;2023-05-02T01:57:06;11.57;;;10.00;;
15104;SDS011;7653;48.994;9.212;2023-05-02T01:59:33;11.77;;;9.57;;
15104;SDS011;7653;48.994;9.212;2023-05-02T02:02:01;10.80;;;9.50;;
15104;SDS011;7653;48.994;9.212;2023-05-02T02:04:28;10.73;;;9.63;;
15104;SDS011;7653;48.994;9.212;2023-05-02T02:07:00;13.47;;;11.03;;
15104;SDS011;7653;48.994;9.212;2023-05-02T02:09:30;11.23;;;9.83;;
15104;SDS011;7653;48.994;9.212;2023-05-02T02:12:06;13.47;;;10.20;;
15104;SDS011;7653;48.994;9.212;2023-05-02T02:14:36;12.43;;;10.73;;
15104;SDS011;7653;48.994;9.212;2023-05-02T02:17:21;11.87;;;10.33;;
15104;SDS011;7653;48.994;9.212;2023-05-02T02:19:52;12.27;;;9.30;;
15104;SDS011;7653;48.994;9.212;2023-05-02T02:22:20;9.53;;;8.53;;
15104;SDS011;7653;48.994;9.212;2023-05-02T02:24:47;10.73;;;9.17;;
15104;SDS011;7653;48.994;9.212;2023-05-02T02:27:13;10.97;;;9.70;;
15104;SDS011;7653;48.994;9.212;2023-05-02T02:29:39;11.30;;;10.10;;
15104;SDS011;7653;48.994;9.212;2023-05-02T02:32:05;13.23;;;10.93;;
15104;SDS011;7653;48.994;9.212;2023-05-02T02:34:30;11.47;;;10.07;;
15104;SDS011;7653;48.994;9.212;2023-05-02T02:36:59;11.20;;;10.07;;
15104;SDS011;7653;48.994;9.212;2023-05-02T02:42:22;12.17;;;10.57;;
15104;SDS011;7653;48.994;9.212;2023-05-02T02:53:43;13.43;;;11.03;;
15104;SDS011;7653;48.994;9.212;2023-05-02T02:56:27;12.23;;;10.63;;
15104;SDS011;7653;48.994;9.212;2023-05-02T03:01:38;11.70;;;10.40;;
15104;SDS011;7653;48.994;9.212;2023-05-02T03:04:08;13.17;;;10.47;;
15104;SDS011;7653;48.994;9.212;2023-05-02T03:06:36;15.10;;;11.03;;
15104;SDS011;7653;48.994;9.212;2023-05-02T03:09:02;13.40;;;10.87;;
15104;SDS011;7653;48.994;9.212;2023-05-02T03:11:28;11.73;;;10.53;;
15104;SDS011;7653;48.994;9.212;2023-05-02T03:13:53;14.00;;;11.53;;
15104;SDS011;7653;48.994;9.212;2023-05-02T03:19:03;13.30;;;11.13;;
15104;SDS011;7653;48.994;9.212;2023-05-02T03:21:30;14.93;;;12.63;;
15104;SDS011;7653;48.994;9.212;2023-05-02T03:24:00;14.23;;;12.37;;
15104;SDS011;7653;48.994;9.212;2023-05-02T03:26:26;15.20;;;12.40;;
15104;SDS011;7653;48.994;9.212;2023-05-02T03:28:52;13.10;;;11.00;;
15104;SDS011;7653;48.994;9.212;2023-05-02T03:31:19;13.60;;;11.23;;
15104;SDS011;7653;48.994;9.212;2023-05-02T03:33:45;13.73;;;11.97;;
15104;SDS011;7653;48.994;9.212;2023-05-02T03:36:11;14.30;;;11.67;;
15104;SDS011;7653;48.994;9.212;2023-05-02T03:38:37;16.23;;;11.87;;
15104;SDS011;7653;48.994;9.212;2023-05-02T03:41:02;14.00;;;12.00;;
15104;SDS011;7653;48.994;9.212;2023-05-02T03:43:28;16.37;;;12.40;;
15104;SDS011;7653;48.994;9.212;2023-05-02T03:45:54;17.67;;;13.47;;
15104;SDS011;7653;48.994;9.212;2023-05-02T03:48:20;14.93;;;12.77;;
15104;SDS011;7653;48.994;9.212;2023-05-02T03:50:46;14.97;;;11.80;;
15104;SDS011;7653;48.994;9.212;2023-05-02T03:53:13;14.07;;;12.17;;
15104;SDS011;7653;48.994;9.212;2023-05-02T03:55:40;14.10;;;12.37;;
15104;SDS011;7653;48.994;9.212;2023-05-02T03:58:06;13.50;;;12.07;;
15104;SDS011;7653;48.994;9.212;2023-05-02T04:00:34;15.23;;;11.97;;
15104;SDS011;7653;48.994;9.212;2023-05-02T04:03:00;14.53;;;11.90;;
15104;SDS011;7653;48.994;9.212;2023-05-02T04:05:26;13.37;;;11.83;;
15104;SDS011;7653;48.994;9.212;2023-05-02T04:07:51;14.47;;;12.53;;
15104;SDS011;7653;48.994;9.212;2023-05-02T04:10:17;15.17;;;13.57;;
15104;SDS011;7653;48.994;9.212;2023-05-02T04:12:43;15.63;;;12.37;;
15104;SDS011;7653;48.994;9.212;2023-05-02T04:15:09;17.43;;;12.63;;
15104;SDS011;7653;48.994;9.212;2023-05-02T04:17:35;14.67;;;12.20;;
15104;SDS011;7653;48.994;9.212;2023-05-02T04:20:01;13.70;;;12.10;;
15104;SDS011;7653;48.994;9.212;2023-05-02T04:22:27;14.63;;;12.07;;
15104;SDS011;7653;48.994;9.212;2023-05-02T04:24:52;15.63;;;12.47;;
15104;SDS011;7653;48.994;9.212;2023-05-02T04:27:18;16.07;;;13.63;;
15104;SDS011;7653;48.994;9.212;2023-05-02T04:29:47;14.97;;;13.33;;
15104;SDS011;7653;48.994;9.212;2023-05-02T04:32:14;16.00;;;13.37;;
15104;SDS011;7653;48.994;9.212;2023-05-02T04:34:40;17.13;;;14.07;;
15104;SDS011;7653;48.994;9.212;2023-05-02T04:37:05;15.87;;;12.67;;
15104;SDS011;7653;48.994;9.212;2023-05-02T04:39:31;16.07;;;12.83;;
15104;SDS011;7653;48.994;9.212;2023-05-02T04:41:57;15.23;;;12.57;;
15104;SDS011;7653;48.994;9.212;2023-05-02T04:44:23;12.20;;;10.80;;
15104;SDS011;7653;48.994;9.212;2023-05-02T04:46:49;13.80;;;10.40;;
15104;SDS011;7653;48.994;9.212;2023-05-02T04:49:15;12.63;;;10.93;;
15104;SDS011;7653;48.994;9.212;2023-05-02T04:51:41;17.50;;;11.67;;
15104;SDS011;7653;48.994;9.212;2023-05-02T04:54:07;14.87;;;11.87;;
15104;SDS011;7653;48.994;9.212;2023-05-02T04:56:32;13.17;;;11.70;;
15104;SDS011;7653;48.994;9.212;2023-05-02T04:58:58;15.37;;;12.10;;
15104;SDS011;7653;48.994;9.212;2023-05-02T05:01:24;16.07;;;12.20;;
15104;SDS011;7653;48.994;9.212;2023-05-02T05:03:51;17.30;;;12.27;;
15104;SDS011;7653;48.994;9.212;2023-05-02T05:06:18;16.00;;;12.77;;
15104;SDS011;7653;48.994;9.212;2023-05-02T05:08:43;17.73;;;12.10;;
15104;SDS011;7653;48.994;9.212;2023-05-02T05:11:09;16.30;;;12.47;;
15104;SDS011;7653;48.994;9.212;2023-05-02T05:13:35;18.47;;;12.37;;
15104;SDS011;7653;48.994;9.212;2023-05-02T05:16:01;16.67;;;12.90;;
15104;SDS011;7653;48.994;9.212;2023-05-02T05:18:28;18.70;;;13.20;;
15104;SDS011;7653;48.994;9.212;2023-05-02T05:20:54;15.87;;;13.43;;
15104;SDS011;7653;48.994;9.212;2023-05-02T05:23:20;19.00;;;13.97;;
15104;SDS011;7653;48.994;9.212;2023-05-02T05:25:46;16.23;;;13.30;;
15104;SDS011;7653;48.994;9.212;2023-05-02T05:28:12;15.67;;;13.30;;
15104;SDS011;7653;48.994;9.212;2023-05-02T05:30:37;13.93;;;12.30;;
15104;SDS011;7653;48.994;9.212;2023-05-02T05:33:03;17.50;;;11.63;;
15104;SDS011;7653;48.994;9.212;2023-05-02T05:35:29;16.67;;;12.60;;
15104;SDS011;7653;48.994;9.212;2023-05-02T05:37:56;14.63;;;11.17;;
15104;SDS011;7653;48.994;9.212;2023-05-02T05:40:22;14.87;;;10.63;;
15104;SDS011;7653;48.994;9.212;2023-05-02T05:42:47;15.43;;;10.17;;
15104;SDS011;7653;48.994;9.212;2023-05-02T05:45:13;14.20;;;11.33;;
15104;SDS011;7653;48.994;9.212;2023-05-02T05:47:41;11.97;;;10.60;;
15104;SDS011;7653;48.994;9.212;2023-05-02T05:50:07;12.00;;;10.50;;
15104;SDS011;7653;48.994;9.212;2023-05-02T05:52:32;13.23;;;10.23;;
15104;SDS011;7653;48.994;9.212;2023-05-02T05:54:58;13.80;;;10.80;;
15104;SDS011;7653;48.994;9.212;2023-05-02T05:57:24;10.97;;;9.43;;
15104;SDS011;7653;48.994;9.212;2023-05-02T05:59:49;12.83;;;9.03;;
15104;SDS011;7653;48.994;9.212;2023-05-02T06:02:16;11.97;;;9.40;;
15104;SDS011;7653;48.994;9.212;2023-05-02T06:04:41;13.37;;;10.10;;
15104;SDS011;7653;48.994;9.212;2023-05-02T06:07:07;11.03;;;8.93;;
15104;SDS011;7653;48.994;9.212;2023-05-02T06:09:33;17.87;;;9.23;;
15104;SDS011;7653;48.994;9.212;2023-05-02T06:12:00;10.50;;;9.40;;
15104;SDS011;7653;48.994;9.212;2023-05-02T06:14:26;14.03;;;8.67;;
15104;SDS011;7653;48.994;9.212;2023-05-02T06:16:51;11.57;;;9.63;;
15104;SDS011;7653;48.994;9.212;2023-05-02T06:19:17;12.53;;;10.20;;
15104;SDS011;7653;48.994;9.212;2023-05-02T06:21:43;11.13;;;9.33;;
15104;SDS011;7653;48.994;9.212;2023-05-02T06:24:08;12.30;;;10.60;;
15104;SDS011;7653;48.994;9.212;2023-05-02T06:26:34;12.33;;;10.37;;
15104;SDS011;7653;48.994;9.212;2023-05-02T06:28:59;12.33;;;10.57;;
15104;SDS011;7653;48.994;9.212;2023-05-02T06:31:26;12.70;;;10.43;;
15104;SDS011;7653;48.994;9.212;2023-05-02T06:33:52;12.57;;;9.90;;
15104;SDS011;7653;48.994;9.212;2023-05-02T06:36:17;16.47;;;10.57;;
15104;SDS011;7653;48.994;9.212;2023-05-02T06:38:43;12.03;;;9.80;;
15104;SDS011;7653;48.994;9.212;2023-05-02T06:41:12;12.60;;;10.33;;
15104;SDS011;7653;48.994;9.212;2023-05-02T06:43:38;11.77;;;10.23;;
15104;SDS011;7653;48.994;9.212;2023-05-02T06:46:04;44.83;;;34.80;;
15104;SDS011;7653;48.994;9.212;2023-05-02T06:48:30;22.77;;;19.73;;
15104;SDS011;7653;48.994;9.212;2023-05-02T06:50:56;15.33;;;13.73;;
15104;SDS011;7653;48.994;9.212;2023-05-02T06:53:21;12.67;;;10.97;;
15104;SDS011;7653;48.994;9.212;2023-05-02T06:55:47;17.43;;;14.40;;
15104;SDS011;7653;48.994;9.212;2023-05-02T06:58:13;15.03;;;11.93;;
15104;SDS011;7653;48.994;9.212;2023-05-02T07:00:39;12.70;;;11.40;;
15104;SDS011;7653;48.994;9.212;2023-05-02T07:03:04;13.13;;;10.90;;
15104;SDS011;7653;48.994;9.212;2023-05-02T07:05:30;12.80;;;10.43;;
15104;SDS011;7653;48.994;9.212;2023-05-02T07:07:56;12.13;;;10.77;;
15104;SDS011;7653;48.994;9.212;2023-05-02T07:10:21;13.93;;;11.07;;
15104;SDS011;7653;48.994;9.212;2023-05-02T07:12:47;13.33;;;9.80;;
15104;SDS011;7653;48.994;9.212;2023-05-02T07:15:13;12.63;;;9.67;;
15104;SDS011;7653;48.994;9.212;2023-05-02T07:17:40;14.13;;;11.13;;
15104;SDS011;7653;48.994;9.212;2023-05-02T07:20:06;17.47;;;13.77;;
15104;SDS011;7653;48.994;9.212;2023-05-02T07:22:33;15.73;;;10.93;;
15104;SDS011;7653;48.994;9.212;2023-05-02T07:25:00;4.87;;;4.37;;
15104;SDS011;7653;48.994;9.212;2023-05-02T07:27:26;12.10;;;10.10;;
15104;SDS011;7653;48.994;9.212;2023-05-02T07:29:52;13.40;;;10.20;;
15104;SDS011;7653;48.994;9.212;2023-05-02T07:32:18;13.47;;;9.77;;
15104;SDS011;7653;48.994;9.212;2023-05-02T07:34:45;16.33;;;13.30;;
15104;SDS011;7653;48.994;9.212;2023-05-02T07:37:11;14.53;;;12.20;;
15104;SDS011;7653;48.994;9.212;2023-05-02T07:39:37;17.07;;;14.17;;
15104;SDS011;7653;48.994;9.212;2023-05-02T07:42:02;15.73;;;13.83;;
15104;SDS011;7653;48.994;9.212;2023-05-02T07:44:28;15.30;;;12.50;;
15104;SDS011;7653;48.994;9.212;2023-05-02T07:46:54;18.97;;;15.63;;
15104;SDS011;7653;48.994;9.212;2023-05-02T07:49:19;18.53;;;12.47;;
15104;SDS011;7653;48.994;9.212;2023-05-02T07:51:45;19.83;;;12.97;;
15104;SDS011;7653;48.994;9.212;2023-05-02T07:54:17;17.93;;;13.43;;
15104;SDS011;7653;48.994;9.212;2023-05-02T07:56:44;19.63;;;14.63;;
15104;SDS011;7653;48.994;9.212;2023-05-02T07:59:10;16.90;;;12.10;;
15104;SDS011;7653;48.994;9.212;2023-05-02T08:01:36;18.73;;;15.50;;
15104;SDS011;7653;48.994;9.212;2023-05-02T08:04:04;18.70;;;14.07;;
15104;SDS011;7653;48.994;9.212;2023-05-02T08:06:30;18.30;;;15.53;;
15104;SDS011;7653;48.994;9.212;2023-05-02T08:08:57;22.40;;;17.60;;
15104;SDS011;7653;48.994;9.212;2023-05-02T08:11:23;19.63;;;16.57;;
15104;SDS011;7653;48.994;9.212;2023-05-02T08:13:49;21.27;;;17.33;;
15104;SDS011;7653;48.994;9.212;2023-05-02T08:16:18;21.23;;;16.83;;
15104;SDS011;7653;48.994;9.212;2023-05-02T08:18:45;21.97;;;15.03;;
15104;SDS011;7653;48.994;9.212;2023-05-02T08:21:10;19.63;;;16.67;;
15104;SDS011;7653;48.994;9.212;2023-05-02T08:23:36;22.00;;;16.70;;
15104;SDS011;7653;48.994;9.212;2023-05-02T08:26:03;20.13;;;16.67;;
15104;SDS011;7653;48.994;9.212;2023-05-02T08:28:29;17.47;;;13.93;;
15104;SDS011;7653;48.994;9.212;2023-05-02T08:30:55;19.20;;;14.90;;
15104;SDS011;7653;48.994;9.212;2023-05-02T08:33:21;18.80;;;14.93;;
15104;SDS011;7653;48.994;9.212;2023-05-02T08:35:47;19.60;;;15.53;;
15104;SDS011;7653;48.994;9.212;2023-05-02T08:38:13;21.10;;;16.33;;
15104;SDS011;7653;48.994;9.212;2023-05-02T08:40:39;21.50;;;15.77;;
15104;SDS011;7653;48.994;9.212;2023-05-02T08:43:04;22.60;;;16.43;;
15104;SDS011;7653;48.994;9.212;2023-05-02T08:45:33;19.37;;;15.90;;
15104;SDS011;7653;48.994;9.212;2023-05-02T08:48:06;17.90;;;14.23;;
15104;SDS011;7653;48.994;9.212;2023-05-02T08:50:37;17.83;;;15.50;;
15104;SDS011;7653;48.994;9.212;2023-05-02T08:53:05;17.60;;;14.30;;
15104;SDS011;7653;48.994;9.212;2023-05-02T08:55:36;19.53;;;15.20;;
15104;SDS011;7653;48.994;9.212;2023-05-02T08:58:06;16.57;;;12.63;;
15104;SDS011;7653;48.994;9.212;2023-05-02T09:00:35;18.23;;;14.80;;
15104;SDS011;7653;48.994;9.212;2023-05-02T09:03:27;17.80;;;13.53;;
15104;SDS011;7653;48.994;9.212;2023-05-02T09:08:30;19.77;;;16.57;;
15104;SDS011;7653;48.994;9.212;2023-05-02T09:10:56;18.17;;;14.87;;
15104;SDS011;7653;48.994;9.212;2023-05-02T09:16:10;17.20;;;14.27;;
15104;SDS011;7653;48.994;9.212;2023-05-02T09:18:37;20.53;;;14.43;;
15104;SDS011;7653;48.994;9.212;2023-05-02T09:21:14;21.80;;;15.03;;
15104;SDS011;7653;48.994;9.212;2023-05-02T09:24:20;16.17;;;14.23;;
15104;SDS011;7653;48.994;9.212;2023-05-02T09:26:59;17.13;;;13.90;;
15104;SDS011;7653;48.994;9.212;2023-05-02T09:29:27;20.00;;;14.77;;
15104;SDS011;7653;48.994;9.212;2023-05-02T09:32:00;18.03;;;14.23;;
15104;SDS011;7653;48.994;9.212;2023-05-02T09:34:27;17.67;;;14.53;;
15104;SDS011;7653;48.994;9.212;2023-05-02T09:36:54;19.20;;;15.37;;
15104;SDS011;7653;48.994;9.212;2023-05-02T09:39:22;17.47;;;13.80;;
15104;SDS011;7653;48.994;9.212;2023-05-02T09:41:55;16.00;;;13.80;;
15104;SDS011;7653;48.994;9.212;2023-05-02T09:44:23;17.83;;;15.90;;
15104;SDS011;7653;48.994;9.212;2023-05-02T09:46:53;18.17;;;14.50;;
15104;SDS011;7653;48.994;9.212;2023-05-02T09:52:15;19.00;;;14.60;;
15104;SDS011;7653;48.994;9.212;2023-05-02T09:54:42;16.57;;;12.97;;
15104;SDS011;7653;48.994;9.212;2023-05-02T09:57:08;20.93;;;16.20;;
15104;SDS011;7653;48.994;9.212;2023-05-02T09:59:34;19.03;;;16.97;;
15104;SDS011;7653;48.994;9.212;2023-05-02T10:02:01;17.17;;;15.03;;
15104;SDS011;7653;48.994;9.212;2023-05-02T10:04:29;21.37;;;15.90;;
15104;SDS011;7653;48.994;9.212;2023-05-02T10:06:56;19.17;;;15.40;;
15104;SDS011;7653;48.994;9.212;2023-05-02T10:09:22;17.30;;;15.17;;
15104;SDS011;7653;48.994;9.212;2023-05-02T10:11:52;17.97;;;16.07;;
15104;SDS011;7653;48.994;9.212;2023-05-02T10:14:19;17.80;;;15.90;;
15104;SDS011;7653;48.994;9.212;2023-05-02T10:19:32;18.27;;;15.67;;
15104;SDS011;7653;48.994;9.212;2023-05-02T10:22:06;21.03;;;15.97;;
15104;SDS011;7653;48.994;9.212;2023-05-02T10:24:32;21.03;;;16.43;;
15104;SDS011;7653;48.994;9.212;2023-05-02T10:26:58;19.93;;;16.00;;
15104;SDS011;7653;48.994;9.212;2023-05-02T10:29:29;16.67;;;13.37;;
15104;SDS011;7653;48.994;9.212;2023-05-02T10:31:59;17.53;;;13.87;;
15104;SDS011;7653;48.994;9.212;2023-05-02T10:34:28;15.37;;;13.50;;
15104;SDS011;7653;48.994;9.212;2023-05-02T10:36:56;17.23;;;14.57;;
15104;SDS011;7653;48.994;9.212;2023-05-02T10:39:26;16.13;;;13.83;;
15104;SDS011;7653;48.994;9.212;2023-05-02T10:41:52;17.37;;;13.77;;
15104;SDS011;7653;48.994;9.212;2023-05-02T10:44:39;18.60;;;15.40;;
15104;SDS011;7653;48.994;9.212;2023-05-02T10:47:24;18.10;;;14.40;;
15104;SDS011;7653;48.994;9.212;2023-05-02T10:49:51;13.37;;;9.33;;
15104;SDS011;7653;48.994;9.212;2023-05-02T10:52:30;19.97;;;15.67;;
15104;SDS011;7653;48.994;9.212;2023-05-02T11:02:50;20.27;;;16.17;;
15104;SDS011;7653;48.994;9.212;2023-05-02T11:05:16;20.20;;;15.37;;
15104;SDS011;7653;48.994;9.212;2023-05-02T11:07:42;23.60;;;18.33;;
15104;SDS011;7653;48.994;9.212;2023-05-02T11:15:08;18.63;;;16.60;;
15104;SDS011;7653;48.994;9.212;2023-05-02T11:17:57;19.87;;;15.53;;
15104;SDS011;7653;48.994;9.212;2023-05-02T11:20:26;18.73;;;15.67;;
15104;SDS011;7653;48.994;9.212;2023-05-02T11:22:52;18.00;;;14.43;;
15104;SDS011;7653;48.994;9.212;2023-05-02T11:27:56;18.00;;;16.07;;
15104;SDS011;7653;48.994;9.212;2023-05-02T11:35:30;18.70;;;15.27;;
15104;SDS011;7653;48.994;9.212;2023-05-02T11:40:28;19.47;;;16.77;;
15104;SDS011;7653;48.994;9.212;2023-05-02T11:42:56;19.30;;;16.83;;
15104;SDS011;7653;48.994;9.212;2023-05-02T11:45:35;22.43;;;16.70;;
15104;SDS011;7653;48.994;9.212;2023-05-02T11:48:05;24.07;;;19.10;;
15104;SDS011;7653;48.994;9.212;2023-05-02T11:50:52;21.60;;;17.17;;
15104;SDS011;7653;48.994;9.212;2023-05-02T11:53:19;15.77;;;12.30;;
15104;SDS011;7653;48.994;9.212;2023-05-02T11:55:53;18.67;;;15.73;;
15104;SDS011;7653;48.994;9.212;2023-05-02T11:58:24;19.30;;;17.20;;
15104;SDS011;7653;48.994;9.212;2023-05-02T12:00:53;21.07;;;17.23;;
15104;SDS011;7653;48.994;9.212;2023-05-02T12:05:52;20.80;;;16.53;;
15104;SDS011;7653;48.994;9.212;2023-05-02T12:08:19;19.57;;;15.80;;
15104;SDS011;7653;48.994;9.212;2023-05-02T12:10:45;20.13;;;15.57;;
15104;SDS011;7653;48.994;9.212;2023-05-02T12:13:11;20.17;;;14.10;;
15104;SDS011;7653;48.994;9.212;2023-05-02T12:15:37;17.13;;;12.83;;
15104;SDS011;7653;48.994;9.212;2023-05-02T12:18:03;16.10;;;12.83;;
15104;SDS011;7653;48.994;9.212;2023-05-02T12:20:28;16.53;;;13.97;;
15104;SDS011;7653;48.994;9.212;2023-05-02T12:22:54;18.80;;;13.90;;
15104;SDS011;7653;48.994;9.212;2023-05-02T12:25:21;15.70;;;12.47;;
15104;SDS011;7653;48.994;9.212;2023-05-02T12:27:59;17.17;;;13.73;;
15104;SDS011;7653;48.994;9.212;2023-05-02T12:30:26;15.50;;;12.40;;
15104;SDS011;7653;48.994;9.212;2023-05-02T12:32:57;15.80;;;12.70;;
15104;SDS011;7653;48.994;9.212;2023-05-02T12:35:25;17.97;;;13.90;;
15104;SDS011;7653;48.994;9.212;2023-05-02T12:37:52;15.03;;;12.07;;
15104;SDS011;7653;48.994;9.212;2023-05-02T12:40:21;13.47;;;10.40;;
15104;SDS011;7653;48.994;9.212;2023-05-02T12:42:59;16.03;;;12.73;;
15104;SDS011;7653;48.994;9.212;2023-05-02T12:45:28;14.70;;;11.00;;
15104;SDS011;7653;48.994;9.212;2023-05-02T12:47:58;15.17;;;12.53;;
15104;SDS011;7653;48.994;9.212;2023-05-02T12:50:41;16.17;;;11.80;;
15104;SDS011;7653;48.994;9.212;2023-05-02T12:53:07;14.30;;;12.20;;
15104;SDS011;7653;48.994;9.212;2023-05-02T12:55:33;14.43;;;12.23;;
15104;SDS011;7653;48.994;9.212;2023-05-02T12:58:02;14.87;;;11.60;;
15104;SDS011;7653;48.994;9.212;2023-05-02T13:00:30;15.40;;;12.50;;
15104;SDS011;7653;48.994;9.212;2023-05-02T13:02:57;16.60;;;11.87;;
15104;SDS011;7653;48.994;9.212;2023-05-02T13:05:23;13.50;;;11.87;;
15104;SDS011;7653;48.994;9.212;2023-05-02T13:07:48;15.87;;;11.00;;
15104;SDS011;7653;48.994;9.212;2023-05-02T13:10:14;13.07;;;11.23;;
15104;SDS011;7653;48.994;9.212;2023-05-02T13:12:42;12.30;;;10.60;;
15104;SDS011;7653;48.994;9.212;2023-05-02T13:15:09;12.63;;;10.23;;
15104;SDS011;7653;48.994;9.212;2023-05-02T13:17:34;12.10;;;9.20;;
15104;SDS011;7653;48.994;9.212;2023-05-02T13:20:00;14.33;;;10.47;;
15104;SDS011;7653;48.994;9.212;2023-05-02T13:22:27;12.40;;;9.83;;
15104;SDS011;7653;48.994;9.212;2023-05-02T13:24:53;10.60;;;8.67;;
15104;SDS011;7653;48.994;9.212;2023-05-02T13:27:18;10.77;;;8.77;;
15104;SDS011;7653;48.994;9.212;2023-05-02T13:29:47;12.00;;;8.73;;
15104;SDS011;7653;48.994;9.212;2023-05-02T13:32:13;11.10;;;8.77;;
15104;SDS011;7653;48.994;9.212;2023-05-02T13:34:39;9.20;;;7.60;;
15104;SDS011;7653;48.994;9.212;2023-05-02T13:37:04;8.40;;;7.53;;
15104;SDS011;7653;48.994;9.212;2023-05-02T13:39:30;10.83;;;9.17;;
15104;SDS011;7653;48.994;9.212;2023-05-02T13:41:56;10.20;;;8.33;;
15104;SDS011;7653;48.994;9.212;2023-05-02T13:44:21;9.30;;;8.33;;
15104;SDS011;7653;48.994;9.212;2023-05-02T13:46:47;11.53;;;9.40;;
15104;SDS011;7653;48.994;9.212;2023-05-02T13:49:12;10.57;;;8.77;;
15104;SDS011;7653;48.994;9.212;2023-05-02T13:51:38;10.20;;;5.83;;
15104;SDS011;7653;48.994;9.212;2023-05-02T13:54:04;9.83;;;7.50;;
15104;SDS011;7653;48.994;9.212;2023-05-02T13:56:30;10.27;;;9.03;;
15104;SDS011;7653;48.994;9.212;2023-05-02T13:58:56;10.47;;;8.43;;
15104;SDS011;7653;48.994;9.212;2023-05-02T14:01:21;8.57;;;7.67;;
15104;SDS011;7653;48.994;9.212;2023-05-02T14:03:47;8.90;;;7.53;;
15104;SDS011;7653;48.994;9.212;2023-05-02T14:06:13;8.97;;;7.07;;
15104;SDS011;7653;48.994;9.212;2023-05-02T14:08:40;9.07;;;6.80;;
15104;SDS011;7653;48.994;9.212;2023-05-02T14:11:06;5.90;;;3.73;;
15104;SDS011;7653;48.994;9.212;2023-05-02T14:13:31;7.33;;;5.67;;
15104;SDS011;7653;48.994;9.212;2023-05-02T14:15:57;9.77;;;7.27;;
15104;SDS011;7653;48.994;9.212;2023-05-02T14:18:23;5.60;;;3.53;;
15104;SDS011;7653;48.994;9.212;2023-05-02T14:20:48;9.97;;;5.83;;
15104;SDS011;7653;48.994;9.212;2023-05-02T14:23:14;7.43;;;6.43;;
15104;SDS011;7653;48.994;9.212;2023-05-02T14:25:40;7.90;;;5.70;;
15104;SDS011;7653;48.994;9.212;2023-05-02T14:28:06;7.27;;;5.40;;
15104;SDS011;7653;48.994;9.212;2023-05-02T14:30:31;9.03;;;6.50;;
15104;SDS011;7653;48.994;9.212;2023-05-02T14:32:57;8.70;;;6.73;;
15104;SDS011;7653;48.994;9.212;2023-05-02T14:35:23;9.50;;;7.33;;
15104;SDS011;7653;48.994;9.212;2023-05-02T14:37:49;7.17;;;6.23;;
15104;SDS011;7653;48.994;9.212;2023-05-02T14:40:14;8.73;;;6.30;;
15104;SDS011;7653;48.994;9.212;2023-05-02T14:42:40;7.37;;;5.87;;
15104;SDS011;7653;48.994;9.212;2023-05-02T14:45:07;8.37;;;6.20;;
15104;SDS011;7653;48.994;9.212;2023-05-02T14:47:36;8.13;;;5.87;;
15104;SDS011;7653;48.994;9.212;2023-05-02T14:50:02;6.70;;;5.90;;
15104;SDS011;7653;48.994;9.212;2023-05-02T14:52:28;6.97;;;5.70;;
15104;SDS011;7653;48.994;9.212;2023-05-02T14:54:54;7.00;;;5.37;;
15104;SDS011;7653;48.994;9.212;2023-05-02T14:57:22;5.80;;;5.10;;
15104;SDS011;7653;48.994;9.212;2023-05-02T14:59:48;6.67;;;5.00;;
15104;SDS011;7653;48.994;9.212;2023-05-02T15:02:14;5.37;;;4.87;;
15104;SDS011;7653;48.994;9.212;2023-05-02T15:04:39;7.67;;;5.20;;
15104;SDS011;7653;48.994;9.212;2023-05-02T15:07:05;7.40;;;5.83;;
15104;SDS011;7653;48.994;9.212;2023-05-02T15:09:31;5.57;;;5.00;;
15104;SDS011;7653;48.994;9.212;2023-05-02T15:11:56;5.63;;;4.80;;
15104;SDS011;7653;48.994;9.212;2023-05-02T15:14:22;5.53;;;4.93;;
15104;SDS011;7653;48.994;9.212;2023-05-02T15:16:48;5.07;;;4.13;;
15104;SDS011;7653;48.994;9.212;2023-05-02T15:19:13;7.07;;;5.27;;
15104;SDS011;7653;48.994;9.212;2023-05-02T15:21:39;6.77;;;4.77;;
15104;SDS011;7653;48.994;9.212;2023-05-02T15:24:05;4.83;;;4.33;;
15104;SDS011;7653;48.994;9.212;2023-05-02T15:26:31;6.00;;;5.00;;
15104;SDS011;7653;48.994;9.212;2023-05-02T15:28:57;5.90;;;4.37;;
15104;SDS011;7653;48.994;9.212;2023-05-02T15:31:23;4.63;;;4.17;;
15104;SDS011;7653;48.994;9.212;2023-05-02T15:33:49;5.93;;;5.33;;
15104;SDS011;7653;48.994;9.212;2023-05-02T15:36:16;4.30;;;3.90;;
15104;SDS011;7653;48.994;9.212;2023-05-02T15:38:42;3.13;;;2.77;;
15104;SDS011;7653;48.994;9.212;2023-05-02T15:41:08;4.20;;;3.20;;
15104;SDS011;7653;48.994;9.212;2023-05-02T15:43:35;4.00;;;3.37;;
15104;SDS011;7653;48.994;9.212;2023-05-02T15:46:04;4.27;;;3.60;;